createdAt,value
2019-05-03T00:02:21.775Z,8.17
2019-05-03T00:07:42.085Z,7.37
2019-05-03T00:13:01.932Z,8.10
2019-05-03T00:18:22.125Z,8.53
2019-05-03T00:23:41.802Z,9.10
2019-05-03T00:29:02.170Z,9.33
2019-05-03T00:34:41.837Z,9.15
2019-05-03T00:40:05.015Z,9.13
2019-05-03T00:45:23.680Z,9.33
2019-05-03T00:50:42.592Z,10.13
2019-05-03T00:56:01.772Z,9.13
2019-05-03T01:01:22.413Z,9.63
2019-05-03T01:06:42.386Z,9.53
2019-05-03T01:12:01.960Z,9.63
2019-05-03T01:17:22.458Z,9.13
2019-05-03T01:22:42.514Z,10.93
2019-05-03T01:28:01.597Z,9.43
2019-05-03T01:33:20.356Z,9.13
2019-05-03T01:38:38.987Z,9.23
2019-05-03T01:43:58.178Z,9.27
2019-05-03T01:49:22.861Z,9.63
2019-05-03T01:54:42.703Z,9.33
2019-05-03T02:00:02.797Z,9.87
2019-05-03T02:05:39.667Z,9.43
2019-05-03T02:10:58.447Z,9.07
2019-05-03T02:16:17.117Z,9.60
2019-05-03T02:21:35.892Z,9.40
2019-05-03T02:26:54.479Z,10.03
2019-05-03T02:32:13.424Z,8.27
2019-05-03T02:37:33.095Z,9.87
2019-05-03T02:43:05.878Z,9.30
2019-05-03T02:48:26.085Z,10.57
2019-05-03T02:53:45.700Z,11.13
2019-05-03T02:59:06.199Z,10.43
2019-05-03T03:04:26.560Z,10.27
2019-05-03T03:09:46.180Z,10.17
2019-05-03T03:15:06.349Z,8.13
2019-05-03T03:20:26.028Z,7.70
2019-05-03T03:25:50.133Z,7.53
2019-05-03T03:31:28.230Z,7.53
2019-05-03T03:37:01.006Z,7.07
2019-05-03T03:42:16.071Z,7.67
2019-05-03T03:47:38.200Z,7.57
2019-05-03T03:52:59.178Z,7.67
2019-05-03T03:58:23.013Z,8.23
2019-05-03T04:03:38.948Z,8.97
2019-05-03T04:08:57.695Z,8.60
2019-05-03T04:14:18.172Z,6.87
2019-05-03T04:19:38.481Z,7.70
2019-05-03T04:24:57.146Z,6.83
2019-05-03T04:30:16.538Z,6.33
2019-05-03T04:35:36.319Z,5.93
2019-05-03T04:40:56.231Z,5.73
2019-05-03T04:46:25.480Z,5.77
2019-05-03T04:51:46.253Z,5.83
2019-05-03T04:57:06.579Z,6.30
2019-05-03T05:02:26.646Z,6.00
2019-05-03T05:07:45.861Z,6.10
2019-05-03T05:13:05.440Z,6.00
2019-05-03T05:18:35.562Z,5.47
2019-05-03T05:23:59.069Z,5.97
2019-05-03T05:29:19.343Z,5.60
2019-05-03T05:34:38.021Z,6.37
2019-05-03T05:39:56.577Z,5.33
2019-05-03T05:45:15.433Z,5.08
2019-05-03T05:50:38.742Z,5.37
2019-05-03T05:55:59.061Z,4.93
2019-05-03T06:01:19.331Z,5.00
2019-05-03T06:06:51.656Z,4.73
2019-05-03T06:12:11.924Z,4.90
2019-05-03T06:17:35.200Z,4.30
2019-05-03T06:22:55.418Z,4.85
2019-05-03T06:28:20.679Z,5.17
2019-05-03T06:33:36.097Z,4.03
2019-05-03T06:38:54.855Z,4.57
2019-05-03T06:44:14.505Z,4.00
2019-05-03T06:49:34.558Z,5.30
2019-05-03T06:54:55.231Z,4.10
2019-05-03T07:00:18.418Z,4.95
2019-05-03T07:05:50.606Z,4.23
2019-05-03T07:11:10.399Z,5.10
2019-05-03T07:16:29.050Z,4.40
2019-05-03T07:21:47.799Z,3.97
2019-05-03T07:27:06.477Z,3.83
2019-05-03T07:32:25.198Z,3.53
2019-05-03T07:37:45.085Z,2.77
2019-05-03T07:43:04.551Z,3.67
2019-05-03T07:48:25.277Z,3.30
2019-05-03T07:53:45.119Z,2.03
2019-05-03T07:59:06.456Z,2.67
2019-05-03T08:04:25.532Z,2.63
2019-05-03T08:09:45.298Z,2.63
2019-05-03T08:15:06.219Z,2.60
2019-05-03T08:20:24.974Z,3.13
2019-05-03T08:25:44.646Z,2.73
2019-05-03T08:31:23.898Z,2.40
2019-05-03T08:36:58.770Z,2.37
2019-05-03T08:42:19.029Z,2.70
2019-05-03T08:47:37.666Z,2.50
2019-05-03T08:52:56.216Z,2.00
2019-05-03T08:58:15.484Z,2.67
2019-05-03T09:03:37.987Z,2.17
2019-05-03T09:08:57.248Z,2.07
2019-05-03T09:14:17.150Z,2.27
2019-05-03T09:19:35.864Z,2.20
2019-05-03T09:24:54.773Z,2.87
2019-05-03T09:30:14.646Z,2.30
2019-05-03T09:35:35.875Z,2.37
2019-05-03T09:40:54.581Z,2.57
2019-05-03T09:46:14.536Z,2.20
2019-05-03T09:51:35.003Z,1.97
2019-05-03T09:57:00.090Z,2.00
2019-05-03T10:02:18.777Z,1.95
2019-05-03T10:07:37.361Z,2.00
2019-05-03T10:12:56.140Z,2.33
2019-05-03T10:18:16.701Z,1.80
2019-05-03T10:23:37.007Z,2.60
2019-05-03T10:28:55.724Z,2.10
2019-05-03T10:34:15.549Z,2.33
2019-05-03T10:39:36.121Z,2.80
2019-05-03T10:44:55.521Z,2.03
2019-05-03T10:50:15.579Z,2.50
2019-05-03T10:55:35.747Z,2.80
2019-05-03T11:00:56.698Z,2.30
2019-05-03T11:06:15.033Z,2.37
2019-05-03T11:11:35.166Z,2.08
2019-05-03T11:16:55.281Z,2.03
2019-05-03T11:22:14.581Z,2.00
2019-05-03T11:27:44.684Z,1.97
2019-05-03T11:33:05.066Z,2.23
2019-05-03T11:38:25.555Z,1.50
2019-05-03T11:43:44.411Z,1.60
2019-05-03T11:49:05.545Z,1.53
2019-05-03T11:54:25.006Z,1.30
2019-05-03T11:59:45.264Z,1.10
2019-05-03T12:05:06.696Z,1.70
2019-05-03T12:10:50.956Z,1.60
2019-05-03T12:15:45.943Z,1.60
2019-05-03T12:35:35.752Z,2.07
2019-05-03T12:40:54.754Z,2.30
2019-05-03T12:46:16.692Z,2.17
2019-05-03T12:51:34.518Z,1.80
2019-05-03T12:56:53.315Z,1.83
2019-05-03T13:02:19.337Z,2.23
2019-05-03T13:07:39.594Z,2.30
2019-05-03T13:12:58.296Z,2.03
2019-05-03T13:18:16.914Z,2.73
2019-05-03T13:23:35.851Z,1.87
2019-05-03T13:28:55.380Z,2.83
2019-05-03T13:34:15.911Z,2.40
2019-05-03T13:39:35.944Z,2.97
2019-05-03T13:44:55.288Z,2.80
2019-05-03T13:50:15.133Z,2.30
2019-05-03T13:55:35.302Z,2.20
2019-05-03T14:00:54.915Z,2.30
2019-05-03T14:06:13.849Z,2.67
2019-05-03T14:11:32.406Z,2.53
2019-05-03T14:16:51.118Z,2.73
2019-05-03T14:22:11.467Z,2.30
2019-05-03T14:27:30.151Z,2.13
2019-05-03T14:32:49.051Z,2.30
2019-05-03T14:38:07.674Z,3.20
2019-05-03T14:43:26.309Z,2.37
2019-05-03T14:48:45.802Z,2.37
2019-05-03T14:54:05.685Z,2.10
2019-05-03T14:59:28.948Z,2.13
2019-05-03T15:04:47.789Z,5.13
2019-05-03T15:10:07.364Z,2.80
2019-05-03T15:15:28.697Z,3.33
2019-05-03T15:20:46.359Z,3.00
2019-05-03T15:26:05.295Z,2.97
2019-05-03T15:31:24.570Z,3.27
2019-05-03T15:36:45.030Z,3.60
2019-05-03T15:42:05.257Z,3.70
2019-05-03T15:47:28.644Z,3.30
2019-05-03T15:52:47.384Z,2.70
2019-05-03T15:58:06.303Z,3.23
2019-05-03T16:03:25.348Z,3.17
2019-05-03T16:08:44.655Z,3.90
2019-05-03T16:14:04.545Z,3.63
2019-05-03T16:19:24.310Z,3.23
2019-05-03T16:24:46.826Z,3.50
2019-05-03T16:30:06.803Z,3.07
2019-05-03T16:35:25.683Z,2.33
2019-05-03T16:40:45.144Z,2.40
2019-05-03T16:46:05.625Z,2.23
2019-05-03T16:51:25.404Z,3.50
2019-05-03T16:56:44.412Z,3.70
2019-05-03T17:02:03.427Z,3.47
2019-05-03T17:07:40.296Z,4.50
2019-05-03T17:12:58.987Z,4.20
2019-05-03T17:18:17.601Z,3.43
2019-05-03T17:23:36.229Z,3.17
2019-05-03T17:28:55.453Z,3.37
2019-05-03T17:34:14.472Z,3.63
2019-05-03T17:39:51.235Z,3.60
2019-05-03T17:45:11.539Z,3.17
2019-05-03T17:50:30.197Z,3.57
2019-05-03T17:55:50.475Z,3.07
2019-05-03T18:01:25.623Z,3.30
2019-05-03T18:06:58.097Z,3.40
2019-05-03T18:12:16.732Z,2.83
2019-05-03T18:17:35.397Z,2.90
2019-05-03T18:22:54.684Z,3.30
2019-05-03T18:28:14.863Z,3.50
2019-05-03T18:33:33.606Z,3.00
2019-05-03T18:38:52.317Z,3.13
2019-05-03T18:44:18.218Z,3.47
2019-05-03T18:49:37.056Z,3.17
2019-05-03T18:54:55.720Z,3.67
2019-05-03T19:00:17.034Z,3.05
2019-05-03T19:05:40.258Z,4.10
2019-05-03T19:11:06.158Z,2.83
2019-05-03T19:16:32.659Z,3.83
2019-05-03T19:21:51.335Z,3.90
2019-05-03T19:27:10.216Z,3.80
2019-05-03T19:32:28.869Z,3.60
2019-05-03T19:37:47.507Z,3.60
2019-05-03T19:43:06.181Z,3.60
2019-05-03T19:48:25.596Z,4.12
2019-05-03T19:53:48.876Z,4.13
2019-05-03T19:59:09.540Z,4.30
2019-05-03T20:04:29.818Z,3.70
2019-05-03T20:09:48.589Z,3.40
2019-05-03T20:15:07.510Z,3.50
2019-05-03T20:20:26.140Z,4.03
2019-05-03T20:25:44.956Z,4.40
2019-05-03T20:31:04.995Z,3.87
2019-05-03T20:36:23.597Z,4.20
2019-05-03T20:41:42.321Z,4.60
2019-05-03T20:47:08.442Z,4.83
2019-05-03T20:52:27.077Z,5.37
2019-05-03T20:57:45.785Z,5.58
2019-05-03T21:03:04.929Z,5.60
2019-05-03T21:08:25.437Z,5.30
2019-05-03T21:13:45.007Z,5.70
2019-05-03T21:19:05.398Z,6.50
2019-05-03T21:24:26.192Z,6.73
2019-05-03T21:29:49.573Z,6.57
2019-05-03T21:35:08.390Z,6.70
2019-05-03T21:40:27.037Z,6.63
2019-05-03T21:45:47.249Z,7.63
2019-05-03T21:51:06.174Z,7.27
2019-05-03T21:56:25.067Z,6.97
2019-05-03T22:01:45.720Z,7.53
2019-05-03T22:07:05.205Z,8.43
2019-05-03T22:12:24.892Z,6.83
2019-05-03T22:17:54.028Z,8.03
2019-05-03T22:23:31.955Z,8.23
2019-05-03T22:28:50.515Z,7.57
2019-05-03T22:34:09.153Z,7.83
2019-05-03T22:39:27.782Z,9.95
2019-05-03T22:44:46.708Z,10.17
2019-05-03T22:50:06.076Z,10.03
2019-05-03T22:55:24.787Z,9.93
2019-05-03T23:00:44.545Z,10.73
2019-05-03T23:06:05.011Z,10.43
2019-05-03T23:11:24.525Z,11.47
2019-05-03T23:16:44.835Z,11.30
2019-05-03T23:22:08.363Z,10.63
2019-05-03T23:27:26.838Z,9.07
2019-05-03T23:32:45.582Z,9.10
2019-05-03T23:38:04.824Z,7.60
2019-05-03T23:43:25.167Z,8.90
2019-05-03T23:48:44.645Z,8.58
2019-05-03T23:54:05.591Z,7.57
2019-05-03T23:59:24.366Z,7.37
